Time;durP1;ratioP1;P1;durP2;ratioP2;P2;SDS_P1;SDS_P2;PMS_P1;PMS_P2;Temp;Humidity;BMP_temperature;BMP_pressure;BME280_temperature;BME280_humidity;BME280_pressure;Samples;Min_cycle;Max_cycle;Signal;HPM_P1;HPM_P2
2023/05/09 00:01:58;;;;;;;11.60;7.40;;;;;;;9.59;43.67;101401.97;103516;1254;96352;-61
2023/05/09 00:04:25;;;;;;;11.90;7.20;;;;;;;9.56;43.54;101399.06;103398;1253;137319;-61
2023/05/09 00:06:53;;;;;;;13.90;8.10;;;;;;;9.53;43.70;101396.84;103642;1253;96527;-62
2023/05/09 00:09:20;;;;;;;12.10;7.80;;;;;;;9.50;43.99;101399.79;103512;1254;109786;-62
2023/05/09 00:11:47;;;;;;;13.30;7.60;;;;;;;9.46;44.01;101400.00;103389;1257;108599;-62
2023/05/09 00:14:14;;;;;;;14.10;8.50;;;;;;;9.43;44.05;101393.44;103474;1253;96421;-62
2023/05/09 00:16:42;;;;;;;12.70;8.10;;;;;;;9.40;44.19;101394.16;103405;1254;137457;-62
2023/05/09 00:19:09;;;;;;;14.70;7.80;;;;;;;9.36;44.46;101392.48;103552;1253;96478;-62
2023/05/09 00:21:36;;;;;;;15.90;7.90;;;;;;;9.32;44.86;101393.02;101957;1254;1003737;-62
2023/05/09 00:24:08;;;;;;;12.50;8.10;;;;;;;9.28;45.05;101389.93;103489;1254;107861;-62
2023/05/09 00:26:37;;;;;;;20.40;8.50;;;;;;;9.25;45.14;101387.02;103711;1256;96430;-63
2023/05/09 00:29:04;;;;;;;13.90;8.00;;;;;;;9.23;44.96;101387.20;103365;1254;137499;-61
2023/05/09 00:31:43;;;;;;;14.00;8.40;;;;;;;9.21;45.21;101385.14;103514;1254;96514;-62
2023/05/09 00:34:10;;;;;;;14.60;9.00;;;;;;;9.19;45.35;101384.80;103636;1252;137211;-63
2023/05/09 00:36:40;;;;;;;17.40;9.20;;;;;;;9.17;45.29;101385.86;103561;1253;107535;-63
2023/05/09 00:39:08;;;;;;;13.40;8.90;;;;;;;9.16;45.42;101388.48;103493;1254;96472;-63
2023/05/09 00:41:35;;;;;;;15.20;8.90;;;;;;;9.13;45.55;101385.36;103283;1254;137691;-63
2023/05/09 00:44:02;;;;;;;13.80;8.80;;;;;;;9.10;45.58;101383.48;103384;1253;96472;-63
2023/05/09 00:46:30;;;;;;;14.40;9.10;;;;;;;9.08;45.63;101380.38;103339;1253;137281;-63
2023/05/09 00:48:57;;;;;;;17.70;9.70;;;;;;;9.06;45.67;101383.34;103582;1254;107889;-63
2023/05/09 00:51:31;;;;;;;19.10;9.80;;;;;;;9.04;45.74;101384.23;103455;1253;137658;-63
2023/05/09 00:53:58;;;;;;;18.20;10.60;;;;;;;9.01;45.87;101382.52;103414;1257;107350;-63
2023/05/09 00:56:26;;;;;;;20.00;10.20;;;;;;;8.98;45.94;101382.72;103500;1254;96440;-63
2023/05/09 00:58:54;;;;;;;17.00;10.70;;;;;;;8.94;46.01;101383.42;103348;1254;137516;-63
2023/05/09 01:01:31;;;;;;;16.10;9.90;;;;;;;8.91;46.06;101382.59;103437;1257;107652;-63
2023/05/09 01:04:01;;;;;;;19.50;10.90;;;;;;;8.88;46.17;101381.57;103348;1254;137939;-63
2023/05/09 01:06:38;;;;;;;16.30;9.70;;;;;;;8.85;46.19;101384.02;103483;1253;110989;-63
2023/05/09 01:09:17;;;;;;;18.60;10.70;;;;;;;8.83;46.36;101382.84;103431;1257;96503;-63
2023/05/09 01:11:53;;;;;;;14.80;10.30;;;;;;;8.79;46.62;101385.61;103490;1257;110686;-63
2023/05/09 01:14:30;;;;;;;17.10;9.80;;;;;;;8.77;46.64;101386.48;103415;1257;108023;-63
2023/05/09 01:16:58;;;;;;;;;;;;;;;8.76;46.84;101388.23;103421;1257;137530;-63
2023/05/09 01:19:46;;;;;;;16.00;9.50;;;;;;;8.73;46.98;101383.74;103445;1253;108664;-63
2023/05/09 01:22:18;;;;;;;19.00;9.70;;;;;;;8.74;47.18;101382.17;103341;1253;137457;-63
2023/05/09 01:25:07;;;;;;;18.10;9.90;;;;;;;8.74;46.99;101384.08;103426;1257;110942;-62
2023/05/09 01:27:47;;;;;;;17.10;8.90;;;;;;;8.75;47.07;101386.33;103610;1257;137622;-61
2023/05/09 01:30:26;;;;;;;16.50;8.90;;;;;;;8.75;47.18;101384.77;103560;1254;96453;-62
2023/05/09 01:32:59;;;;;;;19.40;9.50;;;;;;;8.74;46.68;101384.09;103511;1254;108270;-62
2023/05/09 01:35:33;;;;;;;16.90;9.70;;;;;;;8.74;46.42;101380.79;103437;1253;137514;-62
2023/05/09 01:38:05;;;;;;;18.00;9.10;;;;;;;8.74;46.21;101385.65;103637;1253;110644;-62
2023/05/09 01:40:35;;;;;;;15.20;8.90;;;;;;;8.73;46.34;101382.36;103742;1253;137598;-62
2023/05/09 01:43:16;;;;;;;15.50;8.90;;;;;;;8.72;46.20;101385.31;103558;1253;96473;-62
2023/05/09 01:45:44;;;;;;;13.70;9.20;;;;;;;8.72;46.21;101383.41;103556;1253;137459;-62
2023/05/09 01:48:13;;;;;;;16.50;9.80;;;;;;;8.70;46.34;101384.64;104282;1253;96539;-61
2023/05/09 01:50:43;;;;;;;13.90;8.40;;;;;;;8.68;46.04;101381.36;103582;1252;109431;-62
2023/05/09 01:53:31;;;;;;;16.70;8.50;;;;;;;8.65;45.85;101379.48;103300;1253;137584;-62
2023/05/09 01:56:07;;;;;;;14.40;9.00;;;;;;;8.65;46.11;101381.73;103423;1254;96447;-62
2023/05/09 01:58:44;;;;;;;14.30;9.00;;;;;;;8.62;46.02;101381.92;103459;1254;137329;-62
2023/05/09 02:01:14;;;;;;;14.20;8.60;;;;;;;8.59;46.05;101378.45;103364;1253;96595;-62
2023/05/09 02:03:49;;;;;;;13.90;8.80;;;;;;;8.58;46.26;101378.11;103428;1253;137438;-62
2023/05/09 02:06:22;;;;;;;12.80;8.50;;;;;;;8.56;46.54;101377.27;103379;1257;108105;-62
2023/05/09 02:09:10;;;;;;;15.50;9.50;;;;;;;8.53;46.44;101375.38;103428;1253;96534;-62
2023/05/09 02:11:38;;;;;;;16.50;9.50;;;;;;;8.51;46.51;101375.23;103359;1253;137382;-62
2023/05/09 02:14:05;;;;;;;16.20;9.10;;;;;;;8.47;46.56;101373.69;103467;1253;96387;-62
2023/05/09 02:16:43;;;;;;;17.80;9.30;;;;;;;8.45;46.56;101372.48;103317;1253;137854;-62
2023/05/09 02:19:12;;;;;;;14.20;8.40;;;;;;;8.42;46.69;101370.91;103434;1254;107050;-62
2023/05/09 02:21:42;;;;;;;16.50;8.60;;;;;;;8.40;46.80;101370.58;103374;1252;137610;-62
2023/05/09 02:24:17;;;;;;;15.70;9.00;;;;;;;8.38;46.77;101371.64;103376;1254;107463;-62
2023/05/09 02:27:04;;;;;;;;;;;;;;;8.36;47.19;101373.73;103636;1255;96531;-62
2023/05/09 02:29:38;;;;;;;16.70;9.50;;;;;;;8.32;47.74;101372.86;103578;1253;123837;-62
2023/05/09 02:32:30;;;;;;;14.20;9.80;;;;;;;8.29;48.23;101373.58;103583;1256;107523;-62
2023/05/09 02:35:01;;;;;;;19.50;9.90;;;;;;;8.27;48.71;101374.45;103441;1256;137986;-62
2023/05/09 02:37:28;;;;;;;17.20;9.30;;;;;;;8.24;48.38;101374.09;103661;1253;107536;-62
2023/05/09 02:39:56;;;;;;;16.90;9.90;;;;;;;8.22;48.11;101372.90;103511;1253;137627;-62
2023/05/09 02:42:26;;;;;;;16.10;9.50;;;;;;;8.20;47.99;101372.04;103646;1256;110724;-62
2023/05/09 02:44:53;;;;;;;17.20;9.70;;;;;;;8.19;47.93;101375.52;103598;1256;107791;-61
2023/05/09 02:47:21;;;;;;;14.20;9.30;;;;;;;8.16;47.92;101374.14;103788;1253;137482;-61
2023/05/09 02:49:48;;;;;;;14.70;9.10;;;;;;;8.15;47.91;101378.83;103407;1253;107740;-63
2023/05/09 02:52:18;;;;;;;13.80;9.00;;;;;;;8.14;47.61;101373.80;103418;1252;137407;-61
2023/05/09 02:54:47;;;;;;;13.00;8.90;;;;;;;8.14;47.60;101372.60;103495;1253;109756;-61
2023/05/09 02:57:17;;;;;;;14.30;10.10;;;;;;;8.15;47.59;101374.67;103529;1253;108628;-61
2023/05/09 02:59:44;;;;;;;16.10;10.00;;;;;;;8.15;47.75;101370.69;103290;1253;137822;-62
2023/05/09 03:02:23;;;;;;;12.50;7.90;;;;;;;8.14;47.62;101373.98;103545;1257;108704;-61
2023/05/09 03:05:04;;;;;;;14.20;8.90;;;;;;;8.13;47.09;101375.89;103394;1253;137558;-61
2023/05/09 03:07:32;;;;;;;12.00;8.00;;;;;;;8.12;47.06;101375.73;103419;1257;109522;-61
2023/05/09 03:09:59;;;;;;;14.60;8.00;;;;;;;8.12;46.65;101375.21;103214;1254;137623;-61
2023/05/09 03:12:27;;;;;;;12.70;7.90;;;;;;;8.13;46.64;101377.46;103390;1257;96513;-61
2023/05/09 03:14:54;;;;;;;13.50;8.20;;;;;;;8.12;46.66;101380.75;103419;1254;107401;-61
2023/05/09 03:17:34;;;;;;;14.40;8.40;;;;;;;8.10;46.61;101380.94;103387;1253;137714;-61
2023/05/09 03:20:06;;;;;;;10.80;6.90;;;;;;;8.06;46.48;101375.04;103512;1252;109290;-61
2023/05/09 03:22:34;;;;;;;13.60;7.70;;;;;;;8.04;46.34;101379.04;103522;1254;137480;-61
2023/05/09 03:25:02;;;;;;;13.80;7.00;;;;;;;8.02;46.41;101376.10;103560;1253;96612;-61
2023/05/09 03:27:29;;;;;;;11.50;7.80;;;;;;;8.00;46.36;101373.52;103361;1253;137433;-61
2023/05/09 03:29:56;;;;;;;12.60;7.70;;;;;;;7.99;46.43;101379.75;103565;1255;96792;-62
2023/05/09 03:32:24;;;;;;;13.80;8.10;;;;;;;7.99;46.37;101379.41;103447;1253;109737;-61
2023/05/09 03:34:51;;;;;;;13.20;8.30;;;;;;;7.97;46.20;101379.59;103674;1253;137536;-61
2023/05/09 03:37:21;;;;;;;16.60;8.30;;;;;;;7.95;46.36;101378.04;103553;1253;96407;-61
2023/05/09 03:40:02;;;;;;;14.00;7.50;;;;;;;7.95;46.19;101379.95;103361;1256;137466;-61
2023/05/09 03:42:32;;;;;;;14.50;7.50;;;;;;;7.97;46.13;101379.60;103502;1254;96422;-61
2023/05/09 03:45:00;;;;;;;14.20;7.80;;;;;;;7.98;46.09;101382.71;103599;1253;109780;-61
2023/05/09 03:47:30;;;;;;;10.40;7.80;;;;;;;7.98;46.18;101383.91;103242;1257;137673;-61
2023/05/09 03:49:58;;;;;;;10.50;7.20;;;;;;;8.01;46.04;101384.06;103499;1253;96430;-61
2023/05/09 03:52:25;;;;;;;12.50;7.50;;;;;;;8.05;45.93;101382.49;103469;1252;137436;-61
2023/05/09 03:54:52;;;;;;;14.40;8.20;;;;;;;8.08;46.07;101387.35;103492;1254;96546;-62
2023/05/09 03:57:20;;;;;;;17.60;8.60;;;;;;;8.13;46.07;101384.91;103534;1253;109668;-61
2023/05/09 03:59:48;;;;;;;18.50;11.10;;;;;;;8.18;46.56;101381.06;103457;1253;108606;-62
2023/05/09 04:02:15;;;;;;;16.20;8.80;;;;;;;8.23;46.70;101379.99;103427;1253;96444;-62
2023/05/09 04:04:43;;;;;;;18.30;9.50;;;;;;;8.28;47.04;101379.48;103304;1257;137313;-62
2023/05/09 04:07:10;;;;;;;14.70;9.20;;;;;;;8.31;47.51;101381.88;103442;1253;96512;-62
2023/05/09 04:09:37;;;;;;;13.10;8.60;;;;;;;8.35;47.63;101378.93;103305;1256;137950;-62
2023/05/09 04:12:06;;;;;;;16.80;8.80;;;;;;;8.37;47.48;101382.39;103525;1256;106590;-62
2023/05/09 04:14:40;;;;;;;14.60;9.70;;;;;;;8.40;47.52;101376.99;103496;1254;96428;-62
2023/05/09 04:17:07;;;;;;;14.70;9.70;;;;;;;8.43;47.44;101375.42;102479;1257;1003039;-61
2023/05/09 04:19:34;;;;;;;16.40;9.50;;;;;;;8.47;47.37;101375.59;103421;1253;96524;-62
2023/05/09 04:22:01;;;;;;;13.20;9.00;;;;;;;8.52;47.60;101379.55;103292;1252;137406;-61
2023/05/09 04:24:29;;;;;;;17.50;9.00;;;;;;;8.56;47.62;101378.65;103523;1253;108313;-62
2023/05/09 04:26:57;;;;;;;13.20;8.90;;;;;;;8.61;47.56;101386.95;103574;1256;96459;-62
2023/05/09 04:29:25;;;;;;;13.80;9.50;;;;;;;8.70;47.56;101389.33;103454;1252;137374;-62
2023/05/09 04:31:53;;;;;;;10.90;7.00;;;;;;;8.77;47.06;101384.05;103554;1253;96307;-62
2023/05/09 04:34:24;;;;;;;16.50;8.40;;;;;;;8.84;46.73;101390.80;103422;1253;137649;-62
2023/05/09 04:36:53;;;;;;;13.50;8.20;;;;;;;8.95;46.72;101391.05;103516;1256;108745;-61
2023/05/09 04:39:20;;;;;;;12.60;8.20;;;;;;;9.00;46.44;101388.95;103548;1252;96460;-62
2023/05/09 04:41:55;;;;;;;16.40;9.10;;;;;;;9.02;46.09;101388.76;103556;1253;107821;-62
2023/05/09 04:44:23;;;;;;;16.40;10.00;;;;;;;9.04;46.04;101391.86;103486;1257;96421;-62
2023/05/09 04:46:50;;;;;;;16.90;10.60;;;;;;;9.04;46.34;101390.47;103608;1256;137753;-62
2023/05/09 04:49:17;;;;;;;18.80;10.90;;;;;;;9.09;46.74;101393.55;103500;1253;107146;-62
2023/05/09 04:51:44;;;;;;;17.60;11.90;;;;;;;9.16;46.92;101389.86;103475;1253;137770;-62
2023/05/09 04:54:11;;;;;;;22.00;13.20;;;;;;;9.24;46.92;101386.67;103589;1256;107288;-62
2023/05/09 04:56:39;;;;;;;18.50;10.70;;;;;;;9.34;46.72;101383.11;104103;1253;94705;-61
2023/05/09 04:59:06;;;;;;;16.70;10.40;;;;;;;9.50;46.19;101381.05;103905;1253;138136;-61
2023/05/09 05:01:33;;;;;;;16.90;9.50;;;;;;;9.66;45.69;101381.40;103609;1253;108340;-62
2023/05/09 05:04:01;;;;;;;15.90;8.60;;;;;;;9.90;45.29;101386.71;103659;1252;137880;-62
2023/05/09 05:06:30;;;;;;;15.60;9.30;;;;;;;10.38;45.15;101384.05;103505;1256;108766;-62
2023/05/09 05:08:57;;;;;;;16.10;8.50;;;;;;;11.77;43.98;101383.89;104076;1256;96539;-63
2023/05/09 05:11:25;;;;;;;10.40;7.50;;;;;;;13.86;41.89;101374.65;103918;1252;138232;-62
2023/05/09 05:13:52;;;;;;;13.50;7.90;;;;;;;16.08;39.86;101373.45;103973;1253;106280;-62
2023/05/09 05:16:19;;;;;;;18.30;8.20;;;;;;;18.25;37.65;101367.30;103906;1252;138193;-64
2023/05/09 05:18:47;;;;;;;11.10;7.10;;;;;;;20.29;35.16;101360.39;103565;1253;107981;-62
2023/05/09 05:21:15;;;;;;;12.30;6.70;;;;;;;22.21;32.78;101354.56;103646;1253;96470;-63
2023/05/09 05:23:42;;;;;;;11.90;6.90;;;;;;;23.64;30.17;101350.93;103679;1256;137471;-62
2023/05/09 05:26:09;;;;;;;14.20;6.80;;;;;;;24.82;27.96;101345.88;103557;1256;108456;-63
2023/05/09 05:28:37;;;;;;;12.00;5.90;;;;;;;25.79;26.25;101342.58;103538;1252;138006;-63
2023/05/09 05:31:04;;;;;;;8.30;6.40;;;;;;;26.52;24.52;101341.14;103483;1253;106217;-63
2023/05/09 05:33:31;;;;;;;15.60;6.90;;;;;;;26.95;23.47;101340.78;103592;1252;137819;-63
2023/05/09 05:35:58;;;;;;;12.30;6.40;;;;;;;27.64;23.33;101335.64;103876;1257;109697;-63
2023/05/09 05:38:25;;;;;;;15.00;5.80;;;;;;;28.36;22.13;101339.29;103652;1253;106357;-63
2023/05/09 05:40:54;;;;;;;18.10;6.30;;;;;;;28.94;21.53;101329.19;103743;1253;137938;-63
2023/05/09 05:43:21;;;;;;;10.60;6.20;;;;;;;29.60;20.99;101329.80;103831;1252;107450;-63
2023/05/09 05:45:48;;;;;;;9.50;5.80;;;;;;;30.21;20.45;101329.81;103693;1253;139020;-63
2023/05/09 05:48:16;;;;;;;11.80;6.20;;;;;;;30.89;20.15;101322.50;104030;1252;110021;-63
2023/05/09 05:50:44;;;;;;;10.90;5.20;;;;;;;31.76;19.71;101325.23;103333;1253;107653;-63
2023/05/09 05:53:13;;;;;;;7.60;4.70;;;;;;;32.20;17.61;101324.71;103533;1252;139297;-64
2023/05/09 05:55:41;;;;;;;6.40;4.50;;;;;;;31.81;16.25;101327.43;103731;1256;108806;-64
2023/05/09 05:58:07;;;;;;;9.40;4.20;;;;;;;31.53;16.83;101327.09;103206;1253;137992;-65
2023/05/09 06:00:35;;;;;;;5.70;3.60;;;;;;;31.80;16.99;101327.84;103191;1257;353190;-64
2023/05/09 06:03:02;;;;;;;9.40;4.10;;;;;;;32.23;16.41;101328.02;103592;1253;108322;-64
2023/05/09 06:05:44;;;;;;;7.80;4.10;;;;;;;32.44;16.08;101322.25;103461;1256;137635;-63
2023/05/09 06:08:12;;;;;;;9.60;4.00;;;;;;;32.60;15.79;101320.74;103496;1253;108013;-64
2023/05/09 06:10:39;;;;;;;8.70;4.30;;;;;;;32.73;15.62;101316.48;103958;1253;137626;-64
2023/05/09 06:13:06;;;;;;;8.40;4.00;;;;;;;33.09;15.54;101315.04;103961;1253;101288;-64
2023/05/09 06:15:33;;;;;;;7.80;4.20;;;;;;;33.16;14.75;101317.84;103598;1253;141334;-65
2023/05/09 06:18:00;;;;;;;14.50;4.30;;;;;;;33.21;14.78;101316.42;103463;1253;96597;-64
2023/05/09 06:20:27;;;;;;;11.10;4.80;;;;;;;33.47;14.93;101317.11;103534;1256;100401;-64
2023/05/09 06:22:55;;;;;;;8.30;4.00;;;;;;;33.93;15.23;101316.37;103491;1256;138120;-63
2023/05/09 06:25:22;;;;;;;12.30;3.80;;;;;;;34.58;14.77;101317.66;103494;1252;102560;-64
2023/05/09 06:27:49;;;;;;;7.90;3.70;;;;;;;35.11;13.71;101319.51;103483;1253;138419;-64
2023/05/09 06:30:16;;;;;;;11.90;5.60;;;;;;;34.91;13.36;101314.02;104060;1252;96513;-64
2023/05/09 06:32:52;;;;;;;12.90;3.80;;;;;;;35.10;13.78;101315.15;103569;1256;100111;-64
2023/05/09 06:35:19;;;;;;;10.10;4.00;;;;;;;35.54;13.29;101316.52;103448;1256;137833;-64
2023/05/09 06:37:46;;;;;;;11.90;4.20;;;;;;;35.63;13.05;101319.38;103970;1257;101723;-64
2023/05/09 06:40:15;;;;;;;9.60;4.40;;;;;;;35.69;12.83;101320.54;103848;1253;137821;-64
2023/05/09 06:42:42;;;;;;;8.00;4.40;;;;;;;35.71;13.03;101320.98;103629;1253;96460;-64
2023/05/09 06:45:11;;;;;;;5.50;3.60;;;;;;;35.91;12.71;101321.96;103694;1253;99761;-63
2023/05/09 06:47:38;;;;;;;7.50;3.50;;;;;;;35.72;11.77;101318.16;104061;1253;138080;-63
2023/05/09 06:50:07;;;;;;;7.40;3.10;;;;;;;35.01;11.70;101318.00;103644;1253;101375;-63
2023/05/09 06:52:34;;;;;;;10.80;4.00;;;;;;;34.72;12.07;101319.69;103949;1252;137612;-64
2023/05/09 06:55:01;;;;;;;7.50;3.90;;;;;;;34.72;12.57;101313.64;103648;1256;96454;-63
2023/05/09 06:57:29;;;;;;;6.30;3.40;;;;;;;35.09;12.23;101312.16;103585;1253;99458;-63
2023/05/09 06:59:56;;;;;;;5.30;3.90;;;;;;;35.11;12.13;101307.20;103621;1252;96512;-63
2023/05/09 07:02:23;;;;;;;10.20;4.10;;;;;;;35.30;12.19;101299.85;104352;1252;102434;-64
2023/05/09 07:04:50;;;;;;;7.50;3.50;;;;;;;35.11;11.74;101302.60;103849;1253;137809;-64
2023/05/09 07:07:17;;;;;;;6.40;3.10;;;;;;;34.62;11.93;101304.91;104014;1253;96468;-64
2023/05/09 07:09:44;;;;;;;5.10;3.30;;;;;;;34.43;12.10;101302.53;103484;1252;137663;-64
2023/05/09 07:12:12;;;;;;;6.50;3.40;;;;;;;34.56;12.16;101303.29;103569;1252;96463;-64
2023/05/09 07:14:40;;;;;;;7.00;3.50;;;;;;;34.81;11.98;101298.58;103587;1253;103045;-63
2023/05/09 07:17:07;;;;;;;6.20;3.90;;;;;;;34.82;12.02;101298.21;103636;1256;137792;-63
2023/05/09 07:19:50;;;;;;;7.50;2.90;;;;;;;34.92;12.05;101299.11;103637;1253;96456;-64
2023/05/09 07:22:17;;;;;;;4.10;3.10;;;;;;;34.59;11.24;101304.08;103829;1253;137568;-64
2023/05/09 07:24:45;;;;;;;8.40;3.00;;;;;;;34.01;11.51;101303.73;104326;1253;96304;-64
2023/05/09 07:27:12;;;;;;;6.20;2.80;;;;;;;33.52;11.35;101303.91;104108;1252;102535;-64
2023/05/09 07:29:39;;;;;;;4.90;2.80;;;;;;;33.04;11.81;101293.75;103808;1253;137572;-64
2023/05/09 07:32:06;;;;;;;7.20;2.90;;;;;;;32.96;12.05;101290.19;103957;1253;96485;-64
2023/05/09 07:34:34;;;;;;;7.60;2.80;;;;;;;32.94;12.07;101281.34;103251;1254;137507;-63
2023/05/09 07:37:01;;;;;;;5.50;2.40;;;;;;;33.16;11.63;101282.48;103775;1253;96436;-65
2023/05/09 07:39:28;;;;;;;4.70;2.20;;;;;;;33.31;12.07;101274.17;103676;1255;101841;-64
2023/05/09 07:41:55;;;;;;;6.70;2.30;;;;;;;33.50;11.42;101277.29;103480;1253;99268;-64
2023/05/09 07:44:22;;;;;;;6.00;2.30;;;;;;;33.59;11.65;101277.11;103741;1253;96460;-64
2023/05/09 07:46:49;;;;;;;3.20;2.00;;;;;;;33.66;11.18;101280.91;103541;1253;137469;-62
2023/05/09 07:49:17;;;;;;;4.00;1.80;;;;;;;33.04;10.41;101283.64;103876;1253;96448;-63
2023/05/09 07:51:44;;;;;;;4.00;1.60;;;;;;;32.22;10.69;101283.82;103378;1253;137459;-62
2023/05/09 07:54:10;;;;;;;4.20;1.90;;;;;;;31.56;10.95;101274.46;103523;1253;107810;-63
2023/05/09 07:56:37;;;;;;;5.30;1.70;;;;;;;31.15;11.26;101275.48;103921;1253;94664;-62
2023/05/09 07:59:04;;;;;;;3.00;1.90;;;;;;;30.24;11.27;101267.27;103981;1253;137398;-63
2023/05/09 08:01:31;;;;;;;5.10;1.70;;;;;;;29.54;11.09;101282.23;103457;1253;96433;-63
2023/05/09 08:03:58;;;;;;;3.20;1.50;;;;;;;28.95;11.71;101277.42;103399;1253;137642;-63
2023/05/09 08:06:26;;;;;;;5.50;1.70;;;;;;;28.78;12.34;101268.00;103517;1253;108201;-63
2023/05/09 08:08:53;;;;;;;4.80;2.10;;;;;;;28.97;12.34;101261.99;103588;1256;96582;-62
2023/05/09 08:11:20;;;;;;;4.40;1.80;;;;;;;29.19;12.39;101262.02;104150;1252;138041;-62
2023/05/09 08:13:47;;;;;;;5.20;1.80;;;;;;;29.26;12.36;101264.27;103462;1252;96518;-63
2023/05/09 08:16:16;;;;;;;5.10;1.70;;;;;;;29.20;12.41;101256.90;103509;1252;137684;-62
2023/05/09 08:18:43;;;;;;;3.30;1.70;;;;;;;28.93;11.98;101261.42;103635;1253;108007;-63
2023/05/09 08:21:10;;;;;;;3.80;1.80;;;;;;;28.41;12.20;101251.91;103785;1252;96437;-63
2023/05/09 08:23:37;;;;;;;4.00;1.80;;;;;;;28.36;12.67;101245.08;103490;1253;137590;-63
2023/05/09 08:26:04;;;;;;;2.30;1.60;;;;;;;28.67;12.55;101254.58;103489;1256;96387;-63
2023/05/09 08:28:32;;;;;;;3.40;1.80;;;;;;;28.56;12.37;101250.55;103451;1256;137465;-64
2023/05/09 08:30:58;;;;;;;6.00;1.90;;;;;;;28.32;12.85;101249.73;103526;1253;107780;-63
2023/05/09 08:33:26;;;;;;;3.20;1.90;;;;;;;28.61;13.19;101242.63;103735;1253;96748;-63
2023/05/09 08:35:55;;;;;;;5.00;1.90;;;;;;;29.11;13.24;101236.85;103439;1253;107972;-64
2023/05/09 08:38:23;;;;;;;2.90;1.80;;;;;;;29.23;12.60;101242.34;103745;1257;96541;-64
2023/05/09 08:40:50;;;;;;;3.40;1.70;;;;;;;28.83;12.28;101247.32;103299;1253;137479;-63
2023/05/09 08:43:18;;;;;;;4.60;1.80;;;;;;;28.05;12.06;101249.46;103386;1253;107307;-63
2023/05/09 08:45:51;;;;;;;5.20;1.90;;;;;;;27.33;12.73;101247.41;103338;1256;137854;-63
2023/05/09 08:48:19;;;;;;;4.60;2.00;;;;;;;27.26;13.43;101237.83;104066;1253;106419;-63
2023/05/09 08:50:46;;;;;;;4.10;2.00;;;;;;;27.47;13.35;101229.98;103497;1253;96418;-63
2023/05/09 08:53:14;;;;;;;4.40;2.10;;;;;;;27.79;13.68;101221.62;103438;1253;137512;-63
2023/05/09 08:55:42;;;;;;;5.70;2.10;;;;;;;28.24;14.08;101211.95;103482;1256;107435;-63
2023/05/09 08:58:09;;;;;;;2.80;1.80;;;;;;;28.51;13.48;101218.30;103450;1256;138321;-63
2023/05/09 09:00:39;;;;;;;4.20;1.70;;;;;;;28.05;12.42;101224.05;103448;1253;108872;-62
2023/05/09 09:03:07;;;;;;;3.20;2.00;;;;;;;27.10;12.59;101223.55;103446;1253;96520;-63
2023/05/09 09:05:38;;;;;;;5.60;1.90;;;;;;;26.40;13.33;101214.45;103476;1256;137442;-62
2023/05/09 09:08:09;;;;;;;7.20;1.90;;;;;;;26.24;13.67;101217.02;103532;1252;107681;-63
2023/05/09 09:10:42;;;;;;;3.30;1.90;;;;;;;26.07;13.91;101208.67;103610;1255;138060;-62
2023/05/09 09:13:10;;;;;;;7.60;2.00;;;;;;;25.92;13.77;101215.19;103402;1256;107722;-64
2023/05/09 09:15:40;;;;;;;6.30;2.10;;;;;;;25.72;13.81;101225.94;104580;1253;137687;-63
2023/05/09 09:18:08;;;;;;;6.60;2.10;;;;;;;25.08;13.74;101231.31;104768;1253;109142;-62
2023/05/09 09:20:40;;;;;;;3.10;1.80;;;;;;;24.48;14.36;101228.40;104736;1253;107074;-63
2023/05/09 09:23:10;;;;;;;4.50;2.00;;;;;;;24.21;14.99;101225.42;104607;1252;137628;-63
2023/05/09 09:25:37;;;;;;;7.00;1.80;;;;;;;24.39;15.20;101219.81;104774;1252;108279;-63
2023/05/09 09:28:04;;;;;;;5.70;3.20;;;;;;;24.70;15.11;101217.27;104640;1253;137981;-63
2023/05/09 09:30:31;;;;;;;3.30;2.00;;;;;;;24.76;14.99;101215.10;104768;1253;110525;-63
2023/05/09 09:33:00;;;;;;;6.70;2.00;;;;;;;24.86;15.05;101223.05;104687;1253;107332;-63
2023/05/09 09:35:27;;;;;;;4.20;1.80;;;;;;;24.94;14.61;101221.69;104696;1253;137616;-64
2023/05/09 09:38:00;;;;;;;5.40;1.90;;;;;;;24.70;14.58;101219.05;104738;1253;106284;-64
2023/05/09 09:40:27;;;;;;;3.80;1.90;;;;;;;24.41;14.57;101216.98;104666;1253;138271;-64
2023/05/09 09:42:54;;;;;;;2.80;1.80;;;;;;;24.08;14.77;101215.56;104749;1253;109666;-64
2023/05/09 09:45:21;;;;;;;3.30;1.70;;;;;;;24.00;15.22;101205.99;104705;1254;107747;-62
2023/05/09 09:47:49;;;;;;;3.70;1.80;;;;;;;24.19;15.00;101193.94;104668;1252;137860;-62
2023/05/09 09:50:18;;;;;;;5.10;2.10;;;;;;;24.24;14.97;101193.94;104772;1253;107364;-65
2023/05/09 09:52:51;;;;;;;5.50;1.90;;;;;;;24.09;15.08;101202.27;104663;1253;138054;-63
2023/05/09 09:55:19;;;;;;;5.80;2.00;;;;;;;24.04;15.21;101207.62;104781;1253;109703;-63
2023/05/09 09:57:47;;;;;;;6.20;1.90;;;;;;;23.91;15.21;101210.21;104645;1253;138389;-64
2023/05/09 10:00:20;;;;;;;11.10;1.90;;;;;;;23.63;15.34;101213.85;104746;1253;94607;-63
2023/05/09 10:02:51;;;;;;;4.70;2.00;;;;;;;23.30;15.41;101201.05;104698;1253;108538;-63
2023/05/09 10:05:22;;;;;;;4.10;1.60;;;;;;;23.15;15.73;101194.84;104645;1253;137538;-64
2023/05/09 10:07:53;;;;;;;8.50;2.10;;;;;;;23.14;15.92;101194.33;104742;1253;110313;-63
2023/05/09 10:10:20;;;;;;;10.00;2.60;;;;;;;23.24;15.80;101187.83;104618;1253;137736;-63
2023/05/09 10:12:48;;;;;;;4.00;2.10;;;;;;;23.11;15.80;101184.46;104789;1253;94378;-63
2023/05/09 10:15:20;;;;;;;4.20;2.00;;;;;;;23.03;16.16;101185.08;104702;1253;107282;-64
2023/05/09 10:17:47;;;;;;;6.80;2.30;;;;;;;23.12;16.43;101183.33;104632;1253;137529;-62
2023/05/09 10:20:16;;;;;;;8.50;2.50;;;;;;;23.32;16.51;101187.76;104733;1253;110026;-63
2023/05/09 10:22:43;;;;;;;5.90;2.70;;;;;;;23.21;16.28;101183.04;104610;1253;137517;-63
2023/05/09 10:25:17;;;;;;;4.60;1.90;;;;;;;23.16;16.61;101173.10;104768;1253;94687;-63
2023/05/09 10:27:47;;;;;;;3.90;2.00;;;;;;;23.24;16.08;101181.63;104624;1253;137712;-64
2023/05/09 10:30:19;;;;;;;4.70;2.20;;;;;;;22.79;16.26;101186.45;104709;1253;94979;-61
2023/05/09 10:32:52;;;;;;;5.10;2.00;;;;;;;22.45;16.75;101174.63;104783;1253;109775;-63
2023/05/09 10:35:24;;;;;;;3.90;2.00;;;;;;;22.56;16.91;101171.02;104575;1253;138090;-63
2023/05/09 10:37:52;;;;;;;5.60;2.10;;;;;;;22.26;16.59;101166.98;104754;1253;94564;-63
2023/05/09 10:40:21;;;;;;;4.80;2.10;;;;;;;22.04;16.90;101172.56;104625;1253;137628;-63
2023/05/09 10:42:48;;;;;;;7.40;2.00;;;;;;;21.47;17.14;101175.64;104726;1253;94629;-63
2023/05/09 10:45:15;;;;;;;3.30;2.00;;;;;;;21.09;17.60;101171.98;104752;1256;107922;-63
2023/05/09 10:47:44;;;;;;;6.00;2.50;;;;;;;21.06;17.66;101164.75;104599;1252;137403;-63
2023/05/09 10:50:12;;;;;;;5.30;2.10;;;;;;;21.19;18.06;101161.98;104775;1253;94551;-64
2023/05/09 10:53:06;;;;;;;8.80;2.00;;;;;;;21.02;17.59;101172.75;104659;1253;137572;-63
2023/05/09 10:55:39;;;;;;;4.80;2.10;;;;;;;20.48;18.00;101173.86;104674;1252;94544;-63
2023/05/09 10:58:20;;;;;;;5.00;1.90;;;;;;;20.17;18.26;101176.89;104633;1253;137731;-63
2023/05/09 11:00:47;;;;;;;4.20;2.20;;;;;;;19.92;18.81;101165.05;104724;1253;107300;-63
2023/05/09 11:03:17;;;;;;;5.50;2.10;;;;;;;19.81;19.09;101169.76;104738;1253;94629;-62
2023/05/09 11:05:43;;;;;;;3.10;2.00;;;;;;;19.49;19.19;101152.48;104641;1252;137421;-62
2023/05/09 11:08:27;;;;;;;5.00;2.00;;;;;;;19.35;19.76;101154.81;104702;1252;94574;-63
2023/05/09 11:10:55;;;;;;;7.20;2.10;;;;;;;19.38;20.06;101155.36;104688;1253;137570;-62
2023/05/09 11:13:26;;;;;;;4.40;2.40;;;;;;;19.37;19.58;101139.53;104699;1253;107159;-62
2023/05/09 11:16:05;;;;;;;7.50;2.20;;;;;;;19.35;19.79;101134.89;104613;1254;138211;-63
2023/05/09 11:18:33;;;;;;;6.10;1.90;;;;;;;19.29;20.02;101142.77;104753;1257;107419;-63
2023/05/09 11:21:07;;;;;;;2.60;1.90;;;;;;;19.14;19.92;101146.05;104746;1253;94572;-62